Main page
METAR-TAF:

METAR-TAF

Airports :

Gatwick Airport

London-Gatwick, England

latitude: 51-09N, longitude: 000-11W, elevation: 62 m

Current weather observation

The report was made 31 minutes ago, at 20:50 UTC
Wind 3 kt from the South
Temperature 10°C
Humidity 93%
Pressure 1025 hPa
Visibility 10 km or more
no clouds below 1500 m and no cumulonimbus

METAR: EGKK 132050Z 18003KT CAVOK 10/09 Q1025

Time: 21:21 (21:21 UTC)

Forecast

The report was made 4 hours and 18 minutes ago, at 17:03 UTC
Forecast valid from 13 at 18 UTC to 14 at 24 UTC
Wind 6 kt from the South
Visibility 10 km or more
Few clouds at a height of 3000 ft
Probability 30%
from 13 at 23 UTC to 14 at 08 UTC
Visibility: 8000 m
Probability 30% :
Temporary
from 14 at 19 UTC to 14 at 24 UTC
Broken clouds at a height of 1000 ft

TAF: EGKK 131703Z 1318/1424 19006KT 9999 FEW030 PROB30 1323/1408 8000 PROB30 TEMPO 1419/1424 BKN010

Weather observations and forecasts of more than 4000 airports (METAR and TAF reports).

The available stations are represented by yellow and red dots on the map.

Hover mouse over dot to see the name of the station.

Then click to see weather observations and forecasts.

To change the map : click on the green buttons with a black cross to zoom in, on the green button with a dash to zoom out, or on the green arrows for adjacent maps.


METAR-TAF: